M I D A S
Marine Information and Data Acquisition System
Tripno 1239 of the Zeeleeuw from 2007-03-26 07:10:47 to 2007-03-26 15:19:56
Back to CruiseResearch ActivitiesStationsMapUnderway DataData graphs

EquipmentUnitsComment
TimeDGPSUTC
LatitudeDGPSDM.mWGS84
LongitudeDGPSDM.mWGS84
HeadingGyrodeg 
SOGDGPSknotsSpeed over ground
COGDGPSdegCourse over ground
DepthEcho soundermeters200 kHz
Missing or incorrect values are displayed as -999
Navigation data collected by the RV Zeeleeuw from 2007-03-26 06:50:44 to 2007-03-26 15:31:24
                                                                                    Next 1000 lines
Time Latitude Longitude Heading SOG COG Depth
2007-03-26 06:50:54 51°13.6 2°56.099 107.2 0.1 211 7.2
2007-03-26 06:50:59 51°13.6 2°56.099 106.1 0.1 213 7.3
2007-03-26 06:51:03 51°13.6 2°56.099 104.8 0.1 231 7.2
2007-03-26 06:51:08 51°13.6 2°56.098 103.5 0.2 251 7.3
2007-03-26 06:51:13 51°13.6 2°56.097 102.2 0.5 267 7.3
2007-03-26 06:51:18 51°13.6 2°56.095 101 0.9 271 7.6
2007-03-26 06:51:23 51°13.6 2°56.091 100.3 1.4 271 7.3
2007-03-26 06:51:27 51°13.6 2°56.088 100.2 1.8 275 -999
2007-03-26 06:51:32 51°13.6 2°56.083 100.4 2.3 275 -999
2007-03-26 06:51:38 51°13.601 2°56.076 101.3 2.7 277 9.4
2007-03-26 06:51:43 51°13.601 2°56.069 102 3.1 278 -999
2007-03-26 06:51:49 51°13.602 2°56.06 102.5 3.5 279 -999
2007-03-26 06:51:54 51°13.603 2°56.052 103.1 3.8 279 -999
2007-03-26 06:51:59 51°13.604 2°56.042 103.7 4.1 279 -999
2007-03-26 06:52:04 51°13.605 2°56.033 104.5 4.3 280 -999
2007-03-26 06:52:09 51°13.606 2°56.023 105.4 4.5 280 -999
2007-03-26 06:52:14 51°13.607 2°56.013 106.8 4.6 282 -999
2007-03-26 06:52:19 51°13.609 2°56.003 108.8 4.7 284 -999
2007-03-26 06:52:24 51°13.611 2°55.993 111.3 4.8 286 -999
2007-03-26 06:52:29 51°13.613 2°55.983 114 4.8 290 -999
2007-03-26 06:52:34 51°13.616 2°55.973 117.2 4.8 292 -999
2007-03-26 06:52:39 51°13.618 2°55.963 119.1 4.8 294 -999
2007-03-26 06:52:44 51°13.621 2°55.954 121.1 4.8 297 -999
2007-03-26 06:52:49 51°13.625 2°55.944 123.3 4.8 299 -999
2007-03-26 06:52:54 51°13.628 2°55.935 125.1 4.9 300 -999
2007-03-26 06:52:59 51°13.632 2°55.926 127 4.9 302 -999
2007-03-26 06:53:04 51°13.636 2°55.917 128.7 5 304 -999
2007-03-26 06:53:09 51°13.64 2°55.908 130.2 5 306 4.5
2007-03-26 06:53:14 51°13.644 2°55.899 132.2 5.1 307 -999
2007-03-26 06:53:19 51°13.649 2°55.89 133.5 5.1 308 -999
2007-03-26 06:53:24 51°13.653 2°55.882 135 5 310 -999
2007-03-26 06:53:29 51°13.658 2°55.873 136.1 5 310 -999
2007-03-26 06:53:34 51°13.662 2°55.865 137.2 5.2 312 -999
2007-03-26 06:53:39 51°13.668 2°55.856 137.9 5.3 313 -999
2007-03-26 06:53:44 51°13.673 2°55.847 138.8 5.5 314 -999
2007-03-26 06:53:49 51°13.679 2°55.839 139.8 5.7 315 -999
2007-03-26 06:53:54 51°13.684 2°55.83 140.5 5.8 316 -999
2007-03-26 06:53:59 51°13.69 2°55.821 141 5.9 317 -999
2007-03-26 06:54:04 51°13.696 2°55.812 141.4 5.7 318 -999
2007-03-26 06:54:09 51°13.702 2°55.804 141.4 5.4 317 -999
2007-03-26 06:54:14 51°13.707 2°55.797 140.9 5.3 317 -999
2007-03-26 06:54:19 51°13.713 2°55.789 140.1 5.2 317 -999
2007-03-26 06:54:24 51°13.718 2°55.781 139.3 5.1 316 4.7
2007-03-26 06:54:29 51°13.723 2°55.773 138.6 5.1 316 4.6
2007-03-26 06:54:34 51°13.728 2°55.765 137.6 5.1 316 -999
2007-03-26 06:54:39 51°13.733 2°55.758 136.3 4.8 315 -999
2007-03-26 06:54:44 51°13.737 2°55.75 134.9 4.6 315 -999
2007-03-26 06:54:49 51°13.741 2°55.743 133.8 3.4 314 -999
2007-03-26 06:54:54 51°13.745 2°55.737 132.7 4 314 -999
2007-03-26 06:54:59 51°13.749 2°55.731 131.9 3.9 313 13.6
2007-03-26 06:55:04 51°13.752 2°55.725 130.8 3.6 313 13.4
2007-03-26 06:55:08 51°13.755 2°55.72 129.9 3.4 312 13.3
2007-03-26 06:55:14 51°13.758 2°55.715 127.7 2.9 311 13.4
2007-03-26 06:55:18 51°13.759 2°55.712 125.5 2.3 310 4.6
2007-03-26 06:55:23 51°13.761 2°55.709 122.3 1.8 313 13.3
2007-03-26 06:55:28 51°13.762 2°55.707 117.8 1.3 313 4.8
2007-03-26 06:55:33 51°13.763 2°55.706 112.9 0.8 330 -999
2007-03-26 06:55:39 51°13.764 2°55.706 107.2 0.5 358 -999
2007-03-26 06:55:44 51°13.764 2°55.707 102.3 0.6 37 -999
2007-03-26 06:55:49 51°13.765 2°55.708 96.8 0.6 43 12.8
2007-03-26 06:55:54 51°13.765 2°55.708 92.3 0.5 22 13.1
2007-03-26 06:55:59 51°13.766 2°55.707 88 0.3 311 13.1
2007-03-26 06:56:03 51°13.766 2°55.706 84.7 0.8 287 13
2007-03-26 06:56:08 51°13.766 2°55.703 82 1.2 266 13.1
2007-03-26 06:56:13 51°13.765 2°55.699 78.6 1.7 266 12.9
2007-03-26 06:56:18 51°13.765 2°55.695 76.8 2.1 257 13.2
2007-03-26 06:56:23 51°13.764 2°55.69 74.3 2.2 258 -999
2007-03-26 06:56:28 51°13.763 2°55.685 72.2 2.1 253 -999
2007-03-26 06:56:34 51°13.762 2°55.68 70.3 1.9 256 -999
2007-03-26 06:56:39 51°13.762 2°55.677 68.9 1.6 252 -999
2007-03-26 06:56:44 51°13.761 2°55.674 67.4 1.3 256 -999
2007-03-26 06:56:49 51°13.761 2°55.672 65.3 0.9 254 -999
2007-03-26 06:56:54 51°13.761 2°55.671 62.8 0.6 271 -999
2007-03-26 06:56:59 51°13.762 2°55.671 59.8 0.3 312 13.3
2007-03-26 06:57:04 51°13.763 2°55.671 57.5 0.6 10 13.3
2007-03-26 06:57:09 51°13.764 2°55.672 52.9 1.1 27 -999
2007-03-26 06:57:14 51°13.766 2°55.674 48.3 1.6 22 4.7
2007-03-26 06:57:19 51°13.769 2°55.675 41.7 1.9 21 4.7
2007-03-26 06:57:23 51°13.771 2°55.676 34.8 2.3 15 4.9
2007-03-26 06:57:28 51°13.775 2°55.677 29 2.6 11 4.7
2007-03-26 06:57:33 51°13.779 2°55.678 19.9 2.9 3 4.7
2007-03-26 06:57:38 51°13.783 2°55.677 12.3 3.1 358 4.7
2007-03-26 06:57:43 51°13.788 2°55.676 6.4 3.4 351 4.6
2007-03-26 06:57:47 51°13.792 2°55.675 359.2 3.7 347 4.8
2007-03-26 06:57:52 51°13.797 2°55.672 351.2 4.1 341 13
2007-03-26 06:57:57 51°13.803 2°55.669 346.6 4.4 340 13
2007-03-26 06:58:02 51°13.809 2°55.665 343.7 4.6 338 13
2007-03-26 06:58:07 51°13.816 2°55.66 341.8 5 336 13
2007-03-26 06:58:11 51°13.821 2°55.656 339.7 5.4 335 13
2007-03-26 06:58:16 51°13.828 2°55.65 338.9 5.8 334 13
2007-03-26 06:58:21 51°13.836 2°55.644 338 6.1 333 13
2007-03-26 06:58:26 51°13.844 2°55.638 337.5 6.4 333 13
2007-03-26 06:58:31 51°13.852 2°55.631 337.2 6.6 333 13
2007-03-26 06:58:35 51°13.859 2°55.626 337.2 6.9 333 12.9
2007-03-26 06:58:41 51°13.869 2°55.617 337.2 7.1 332 12.9
2007-03-26 06:58:46 51°13.878 2°55.61 336.9 7.3 333 13
2007-03-26 06:58:51 51°13.887 2°55.602 336.9 7.5 333 -999
2007-03-26 06:58:56 51°13.897 2°55.594 337.3 7.6 333 13
2007-03-26 06:59:00 51°13.904 2°55.588 337.7 7.7 333 12.9
2007-03-26 06:59:06 51°13.916 2°55.579 338.1 7.8 334 13
2007-03-26 06:59:11 51°13.926 2°55.571 338.1 8 333 13
2007-03-26 06:59:15 51°13.934 2°55.565 338.1 8 334 13.1
2007-03-26 06:59:20 51°13.944 2°55.557 339.1 8.1 335 13
2007-03-26 06:59:26 51°13.956 2°55.548 339.6 8.2 335 13.1
2007-03-26 06:59:31 51°13.967 2°55.54 339.8 8.3 335 13
2007-03-26 06:59:35 51°13.975 2°55.533 339.8 8.3 334 13.1
2007-03-26 06:59:40 51°13.986 2°55.526 339.7 8.3 334 13
2007-03-26 06:59:46 51°13.998 2°55.516 339.6 8.3 334 13.1
2007-03-26 06:59:51 51°14.008 2°55.508 339.6 8.3 335 13.1
2007-03-26 06:59:56 51°14.019 2°55.5 339.9 8.3 335 13
2007-03-26 07:00:00 51°14.028 2°55.494 340.3 8.3 336 13
2007-03-26 07:00:06 51°14.04 2°55.485 341.1 8.4 336 13.1
2007-03-26 07:00:11 51°14.051 2°55.478 341.8 8.6 337 13
2007-03-26 07:00:16 51°14.063 2°55.469 341.4 9 335 13
2007-03-26 07:00:21 51°14.074 2°55.461 341.1 9.2 336 -999
2007-03-26 07:00:26 51°14.086 2°55.453 341.3 9.4 336 13
2007-03-26 07:00:31 51°14.098 2°55.444 341.4 9.6 336 -999
2007-03-26 07:00:36 51°14.111 2°55.435 341.4 9.8 336 13
2007-03-26 07:00:41 51°14.124 2°55.426 340.7 10 335 13.4
2007-03-26 07:00:46 51°14.136 2°55.416 340.2 10.3 335 13
2007-03-26 07:00:51 51°14.149 2°55.405 339.6 10.5 333 -999
2007-03-26 07:00:56 51°14.163 2°55.394 337.7 10.7 331 -999
2007-03-26 07:01:02 51°14.178 2°55.379 335.3 10.9 329 -999
2007-03-26 07:01:07 51°14.191 2°55.365 333.1 11.1 326 13
2007-03-26 07:01:12 51°14.203 2°55.35 331.2 11.2 324 -999
2007-03-26 07:01:17 51°14.216 2°55.335 328.8 11.3 322 13
2007-03-26 07:01:23 51°14.23 2°55.315 326.3 11.4 319 -999
2007-03-26 07:01:27 51°14.239 2°55.301 323.8 11.5 316 12.9
2007-03-26 07:01:33 51°14.253 2°55.279 321.9 11.6 316 13
2007-03-26 07:01:38 51°14.264 2°55.261 320.8 11.6 314 -999
2007-03-26 07:01:43 51°14.275 2°55.242 319.8 11.7 313 12.9
2007-03-26 07:01:48 51°14.286 2°55.223 318.4 11.7 311 13
2007-03-26 07:01:52 51°14.295 2°55.207 317.2 11.8 311 13.1
2007-03-26 07:01:57 51°14.305 2°55.187 315.7 11.8 310 13
2007-03-26 07:02:02 51°14.315 2°55.167 314.8 11.8 310 12.9
2007-03-26 07:02:07 51°14.326 2°55.147 314.8 11.9 310 12.7
2007-03-26 07:02:11 51°14.334 2°55.131 314.9 11.8 310 12.7
2007-03-26 07:02:16 51°14.345 2°55.111 315.4 11.8 311 12.7
2007-03-26 07:02:21 51°14.356 2°55.092 316.2 11.9 312 12.6
2007-03-26 07:02:26 51°14.368 2°55.073 317.1 11.9 313 12.4
2007-03-26 07:02:30 51°14.377 2°55.057 318.4 12.1 315 12.7
2007-03-26 07:02:36 51°14.392 2°55.035 319.6 12.2 316 12.3
2007-03-26 07:02:40 51°14.402 2°55.02 321.3 12.5 319 12.4
2007-03-26 07:02:46 51°14.419 2°54.999 323.5 12.7 321 12.4
2007-03-26 07:02:51 51°14.434 2°54.983 326.3 12.8 325 12.3
2007-03-26 07:02:56 51°14.449 2°54.968 329.5 13.1 328 12.1
2007-03-26 07:03:01 51°14.465 2°54.955 332.6 13.1 332 12.1
2007-03-26 07:03:05 51°14.478 2°54.946 336.4 13.1 336 11.5
2007-03-26 07:03:10 51°14.495 2°54.933 338.9 13.2 336 11.5
2007-03-26 07:03:15 51°14.512 2°54.922 339.6 13.2 337 11.4
2007-03-26 07:03:21 51°14.532 2°54.908 339.7 13.3 337 11.2
2007-03-26 07:03:26 51°14.55 2°54.897 339.7 13.4 338 11.4
2007-03-26 07:03:31 51°14.567 2°54.886 339.9 13.4 338 11.1
2007-03-26 07:03:35 51°14.581 2°54.878 339.5 13.4 339 11.2
2007-03-26 07:03:41 51°14.602 2°54.866 340.7 13.5 341 11.1
2007-03-26 07:03:46 51°14.621 2°54.86 343.8 13.6 346 11.2
2007-03-26 07:03:51 51°14.639 2°54.855 347.7 13.6 350 11.2
2007-03-26 07:03:55 51°14.654 2°54.852 352.4 13.5 354 11.1
2007-03-26 07:04:00 51°14.673 2°54.851 356.3 13.6 356 11.1
2007-03-26 07:04:06 51°14.695 2°54.848 357.8 13.6 356 11
2007-03-26 07:04:11 51°14.714 2°54.846 358 13.6 356 11.1
2007-03-26 07:04:15 51°14.729 2°54.844 357.7 13.6 355 11
2007-03-26 07:04:20 51°14.748 2°54.842 357.2 13.7 355 11.2
2007-03-26 07:04:26 51°14.771 2°54.838 356.6 13.6 354 10.9
2007-03-26 07:04:31 51°14.79 2°54.834 355.3 13.7 353 11
2007-03-26 07:04:36 51°14.808 2°54.829 354.2 13.7 352 11.1
2007-03-26 07:04:41 51°14.827 2°54.825 353.2 13.7 351 11
2007-03-26 07:04:46 51°14.846 2°54.819 352.1 13.6 350 11
2007-03-26 07:04:51 51°14.864 2°54.814 351 13.7 349 11
2007-03-26 07:04:56 51°14.883 2°54.808 350.5 13.7 349 10.9
2007-03-26 07:05:01 51°14.901 2°54.802 350 13.7 349 10.9
2007-03-26 07:05:06 51°14.92 2°54.796 349.9 13.7 349 10.9
2007-03-26 07:05:10 51°14.935 2°54.792 349.9 13.7 349 10.9
2007-03-26 07:05:16 51°14.957 2°54.785 349.9 13.6 349 10.6
2007-03-26 07:05:21 51°14.976 2°54.779 349.9 13.7 349 10.8
2007-03-26 07:05:26 51°14.995 2°54.773 349.9 13.8 349 10.9
2007-03-26 07:05:30 51°15.01 2°54.769 350 13.8 349 10.7
2007-03-26 07:05:35 51°15.029 2°54.763 350.2 13.8 349 10.4
2007-03-26 07:05:41 51°15.051 2°54.756 350.1 13.7 349 10.5
2007-03-26 07:05:46 51°15.07 2°54.75 350.1 13.7 349 10.3
2007-03-26 07:05:51 51°15.088 2°54.745 349.7 13.7 349 10.4
2007-03-26 07:05:55 51°15.103 2°54.74 349.8 13.8 349 10
2007-03-26 07:06:00 51°15.122 2°54.735 349.8 13.7 349 10
2007-03-26 07:06:06 51°15.144 2°54.728 350.2 13.7 349 10
2007-03-26 07:06:11 51°15.163 2°54.722 350.1 13.7 349 10
2007-03-26 07:06:15 51°15.178 2°54.717 349.9 13.7 349 10
2007-03-26 07:06:20 51°15.197 2°54.711 349.9 13.8 348 10.1
2007-03-26 07:06:26 51°15.219 2°54.704 349.8 13.7 348 10.1
2007-03-26 07:06:31 51°15.238 2°54.697 349.6 13.7 347 10.2
2007-03-26 07:06:36 51°15.256 2°54.689 349.3 13.8 346 10.3
2007-03-26 07:06:40 51°15.271 2°54.684 349.2 13.6 346 10.3
2007-03-26 07:06:46 51°15.293 2°54.675 349.1 13.6 346 10.5
2007-03-26 07:06:51 51°15.312 2°54.668 349.3 13.6 346 10.5
2007-03-26 07:06:56 51°15.33 2°54.661 349.8 13.7 347 10.6
2007-03-26 07:07:01 51°15.348 2°54.654 349.8 13.7 347 10.6
2007-03-26 07:07:06 51°15.367 2°54.647 350.1 13.7 347 10.9
2007-03-26 07:07:11 51°15.385 2°54.641 350.5 13.6 348 10.7
2007-03-26 07:07:16 51°15.404 2°54.634 350.6 13.7 347 10.7
2007-03-26 07:07:21 51°15.422 2°54.628 350.6 13.7 348 10.8
2007-03-26 07:07:26 51°15.441 2°54.621 350.9 13.6 348 10.9
2007-03-26 07:07:30 51°15.456 2°54.616 350.9 13.7 348 11
2007-03-26 07:07:35 51°15.474 2°54.61 351.2 13.6 348 11.1
2007-03-26 07:07:41 51°15.496 2°54.602 350.6 13.6 347 11
2007-03-26 07:07:46 51°15.515 2°54.596 350.7 13.7 348 11.1
2007-03-26 07:07:51 51°15.533 2°54.59 351.2 13.7 348 11.2
2007-03-26 07:07:55 51°15.548 2°54.585 351.2 13.6 348 11.6
2007-03-26 07:08:01 51°15.57 2°54.577 351.1 13.7 348 11.3
2007-03-26 07:08:06 51°15.589 2°54.571 351 13.8 348 11.4
2007-03-26 07:08:11 51°15.607 2°54.565 351.2 13.6 349 11.4
2007-03-26 07:08:15 51°15.622 2°54.561 351.4 13.6 349 11.4
2007-03-26 07:08:20 51°15.641 2°54.555 351.5 13.6 349 11.5
2007-03-26 07:08:26 51°15.663 2°54.548 351.5 13.7 349 11.7
2007-03-26 07:08:31 51°15.682 2°54.542 351.5 13.7 349 11.7
2007-03-26 07:08:36 51°15.701 2°54.537 351.3 13.7 349 11.8
2007-03-26 07:08:39 51°15.712 2°54.533 351.6 13.7 350 11.8
2007-03-26 07:08:46 51°15.738 2°54.525 352 13.7 350 11.8
2007-03-26 07:08:51 51°15.757 2°54.52 351.7 13.7 349 12
2007-03-26 07:08:56 51°15.776 2°54.514 351.8 13.7 349 12
2007-03-26 07:09:00 51°15.791 2°54.51 351.6 13.7 349 12
2007-03-26 07:09:06 51°15.813 2°54.503 351.6 13.8 349 12.1
2007-03-26 07:09:11 51°15.832 2°54.497 351.3 13.7 349 12.1
2007-03-26 07:09:16 51°15.85 2°54.492 351.2 13.3 349 12.1
2007-03-26 07:09:21 51°15.867 2°54.487 351.3 12.8 350 12.2
2007-03-26 07:09:26 51°15.883 2°54.482 351.4 12.1 349 12.3
2007-03-26 07:09:31 51°15.899 2°54.477 351.5 11.5 350 12.3
2007-03-26 07:09:36 51°15.914 2°54.473 351.9 11 350 12.4
2007-03-26 07:09:41 51°15.928 2°54.47 352 10.5 351 12.5
2007-03-26 07:09:46 51°15.942 2°54.466 352.3 10.1 351 12.5
2007-03-26 07:09:50 51°15.953 2°54.464 352.7 9.8 352 12.6
2007-03-26 07:09:56 51°15.968 2°54.46 353.2 9.4 352 12.5
2007-03-26 07:10:01 51°15.981 2°54.458 353.3 9.1 352 12.6
2007-03-26 07:10:06 51°15.993 2°54.455 353.4 9 353 12.7
2007-03-26 07:10:11 51°16.005 2°54.453 353.5 8.7 352 12.7
2007-03-26 07:10:15 51°16.014 2°54.451 353.4 8.4 353 12.7
2007-03-26 07:10:21 51°16.027 2°54.448 353.2 8.1 353 12.8
2007-03-26 07:10:26 51°16.038 2°54.446 352.9 7.8 353 12.8
2007-03-26 07:10:31 51°16.048 2°54.444 352.7 7.5 352 12.8
2007-03-26 07:10:35 51°16.056 2°54.442 352.5 7.3 352 12.8
2007-03-26 07:10:40 51°16.066 2°54.44 352.1 7.1 352 12.9
2007-03-26 07:10:46 51°16.077 2°54.437 352 6.9 352 13
2007-03-26 07:10:51 51°16.086 2°54.435 352 6.6 352 12.9
2007-03-26 07:10:56 51°16.095 2°54.433 351.7 6.4 351 13
2007-03-26 07:11:00 51°16.102 2°54.431 351.5 6.3 352 13
2007-03-26 07:11:06 51°16.111 2°54.429 351.5 6.1 352 13
2007-03-26 07:11:11 51°16.119 2°54.427 351.8 5.9 352 13
2007-03-26 07:11:16 51°16.127 2°54.425 352.1 5.7 353 13.1
2007-03-26 07:11:20 51°16.133 2°54.424 352.5 5.6 352 13
2007-03-26 07:11:26 51°16.142 2°54.422 352.7 5.4 353 13
2007-03-26 07:11:31 51°16.149 2°54.421 352.8 5.2 352 13
2007-03-26 07:11:36 51°16.156 2°54.419 352.5 4.9 352 13
2007-03-26 07:11:41 51°16.162 2°54.417 349.8 4.7 348 12.9
2007-03-26 07:11:46 51°16.168 2°54.414 346.9 4.5 346 13
2007-03-26 07:11:51 51°16.173 2°54.411 342 4.3 343 12.9
2007-03-26 07:11:56 51°16.179 2°54.408 337.5 4.1 339 13
2007-03-26 07:12:01 51°16.183 2°54.404 333.4 3.8 334 13
2007-03-26 07:12:06 51°16.188 2°54.401 328.9 3.7 333 13
2007-03-26 07:12:10 51°16.191 2°54.397 324.8 3.5 328 12.9
2007-03-26 07:12:15 51°16.195 2°54.393 321.9 3.4 327 12.9
2007-03-26 07:12:21 51°16.199 2°54.388 319.1 3.3 325 13
2007-03-26 07:12:26 51°16.203 2°54.384 317.4 3.2 324 13
2007-03-26 07:12:31 51°16.206 2°54.379 315.7 3.1 321 13
2007-03-26 07:12:35 51°16.209 2°54.375 314.4 3.1 319 13
2007-03-26 07:12:40 51°16.212 2°54.371 313.6 3 319 13
2007-03-26 07:12:46 51°16.215 2°54.366 312.9 2.9 319 13
2007-03-26 07:12:51 51°16.218 2°54.363 312.7 2.7 321 12.9
2007-03-26 07:12:55 51°16.221 2°54.36 312.9 2.6 322 13
2007-03-26 07:13:00 51°16.223 2°54.357 313.7 2.3 323 13
2007-03-26 07:13:06 51°16.226 2°54.354 315 2 327 13
2007-03-26 07:13:11 51°16.228 2°54.352 318.4 1.9 331 13
2007-03-26 07:13:15 51°16.23 2°54.35 320.8 1.6 332 13
2007-03-26 07:13:20 51°16.231 2°54.349 323.7 1.2 339 13
2007-03-26 07:13:26 51°16.232 2°54.349 326 0.7 346 13
2007-03-26 07:13:31 51°16.233 2°54.349 329.4 0.5 14 12.9
2007-03-26 07:13:35 51°16.233 2°54.349 331.7 0.4 7 12.9
2007-03-26 07:13:41 51°16.234 2°54.349 332.5 0.3 359 12.9
2007-03-26 07:13:46 51°16.235 2°54.349 333.5 0.3 358 13
2007-03-26 07:13:51 51°16.235 2°54.349 333.8 0.4 -999 13
2007-03-26 07:13:56 51°16.236 2°54.349 333.8 0.4 354 12.9
2007-03-26 07:14:01 51°16.236 2°54.349 333.6 0.4 353 13
2007-03-26 07:14:05 51°16.236 2°54.349 333.5 0.4 358 13
2007-03-26 07:14:10 51°16.237 2°54.349 333.2 0.4 355 13
2007-03-26 07:14:15 51°16.237 2°54.349 333.2 0.4 356 13.2
2007-03-26 07:14:21 51°16.238 2°54.349 333 0.3 352 13
2007-03-26 07:14:26 51°16.238 2°54.349 332.9 0.3 2 13
2007-03-26 07:14:31 51°16.239 2°54.349 332.6 0.4 11 13.1
2007-03-26 07:14:35 51°16.239 2°54.348 332.4 0.3 350 12.9
2007-03-26 07:14:41 51°16.239 2°54.348 332 0.2 351 13
2007-03-26 07:14:46 51°16.24 2°54.348 332.2 0.4 353 13
2007-03-26 07:14:51 51°16.24 2°54.348 332 0.4 355 13.1
2007-03-26 07:14:55 51°16.241 2°54.348 331.3 0.3 343 12.9
2007-03-26 07:15:00 51°16.241 2°54.348 330.9 0.3 3 12.9
2007-03-26 07:15:06 51°16.242 2°54.348 330.4 0.4 348 13
2007-03-26 07:15:11 51°16.242 2°54.348 330.2 0.3 351 13
2007-03-26 07:15:15 51°16.242 2°54.348 330 0.4 341 13
2007-03-26 07:15:20 51°16.243 2°54.348 329.7 0.3 348 13
2007-03-26 07:15:26 51°16.243 2°54.348 328.7 0.3 334 13
2007-03-26 07:15:31 51°16.243 2°54.348 328.6 0.3 359 13
2007-03-26 07:15:36 51°16.244 2°54.348 327.9 0.4 350 12.9
2007-03-26 07:15:41 51°16.244 2°54.347 327.3 0.3 347 12.9
2007-03-26 07:15:46 51°16.245 2°54.348 327 0.3 350 13
2007-03-26 07:15:51 51°16.245 2°54.347 326.3 0.3 347 12.9
2007-03-26 07:15:56 51°16.245 2°54.347 326 0.3 336 13
2007-03-26 07:16:01 51°16.246 2°54.347 325.7 0.3 335 13.2
2007-03-26 07:16:06 51°16.246 2°54.347 325.7 0.3 1 13.1
2007-03-26 07:16:11 51°16.246 2°54.347 325.2 0.2 345 12.9
2007-03-26 07:16:16 51°16.247 2°54.347 325.1 0.3 8 12.9
2007-03-26 07:16:21 51°16.247 2°54.347 325.1 0.3 344 12.9
2007-03-26 07:16:26 51°16.248 2°54.347 324.7 0.3 357 12.9
2007-03-26 07:16:31 51°16.248 2°54.347 325 0.3 354 12.9
2007-03-26 07:16:35 51°16.249 2°54.346 325.2 0.4 359 12.9
2007-03-26 07:16:41 51°16.249 2°54.346 325.2 0.3 342 12.9
2007-03-26 07:16:46 51°16.25 2°54.346 325.5 0.3 -999 12.9
2007-03-26 07:16:51 51°16.25 2°54.346 325.6 0.3 356 12.9
2007-03-26 07:16:55 51°16.25 2°54.346 325.7 0.4 7 12.9
2007-03-26 07:17:01 51°16.251 2°54.345 325.9 0.3 331 13
2007-03-26 07:17:06 51°16.251 2°54.345 326.4 0.3 355 13
2007-03-26 07:17:11 51°16.251 2°54.345 326.7 0.3 359 12.9
2007-03-26 07:17:15 51°16.252 2°54.345 326.4 0.2 348 12.9
2007-03-26 07:17:20 51°16.252 2°54.345 326.5 0.3 343 12.9
2007-03-26 07:17:26 51°16.253 2°54.345 326.5 0.4 347 12.9
2007-03-26 07:17:31 51°16.253 2°54.344 326.4 0.3 343 12.9
2007-03-26 07:17:35 51°16.254 2°54.344 326.4 0.4 353 12.9
2007-03-26 07:17:40 51°16.254 2°54.344 326.4 0.3 349 13
2007-03-26 07:17:46 51°16.254 2°54.344 326.3 0.3 359 13
2007-03-26 07:17:51 51°16.255 2°54.344 326.4 0.2 345 12.9
2007-03-26 07:17:56 51°16.255 2°54.343 326.4 0.3 354 12.9
2007-03-26 07:18:01 51°16.256 2°54.343 326.3 0.3 350 12.9
2007-03-26 07:18:06 51°16.256 2°54.343 325.9 0.3 331 12.9
2007-03-26 07:18:11 51°16.257 2°54.342 326.1 0.4 333 12.9
2007-03-26 07:18:16 51°16.257 2°54.342 326.1 0.4 330 12.9
2007-03-26 07:18:21 51°16.257 2°54.342 326.3 0.4 354 12.9
2007-03-26 07:18:26 51°16.258 2°54.342 326.5 0.4 324 12.9
2007-03-26 07:18:30 51°16.258 2°54.342 326.8 0.4 353 13
2007-03-26 07:18:36 51°16.259 2°54.342 327.1 0.4 345 13
2007-03-26 07:18:41 51°16.259 2°54.342 327.1 0.3 334 13.1
2007-03-26 07:18:46 51°16.26 2°54.342 327.3 0.3 357 13
2007-03-26 07:18:50 51°16.26 2°54.342 327.8 0.3 8 12.9
2007-03-26 07:18:55 51°16.261 2°54.341 327.8 0.3 354 12.8
2007-03-26 07:19:01 51°16.261 2°54.341 328 0.3 346 12.9
2007-03-26 07:19:06 51°16.262 2°54.341 328.4 0.3 344 13.1
2007-03-26 07:19:11 51°16.262 2°54.341 328.7 0.4 350 12.9
2007-03-26 07:19:15 51°16.262 2°54.341 329 0.3 351 12.9
2007-03-26 07:19:21 51°16.263 2°54.34 329.2 0.3 341 13
2007-03-26 07:19:26 51°16.263 2°54.34 329.7 0.3 355 12.9
2007-03-26 07:19:31 51°16.263 2°54.34 330 0.3 345 13
2007-03-26 07:19:35 51°16.264 2°54.34 330.3 0.4 343 13
2007-03-26 07:19:40 51°16.264 2°54.34 330.8 0.3 354 12.9
2007-03-26 07:19:46 51°16.265 2°54.34 330.8 0.3 2 12.9
2007-03-26 07:19:51 51°16.265 2°54.339 330.6 0.3 330 12.9
2007-03-26 07:19:55 51°16.266 2°54.339 330.9 0.4 339 13.1
2007-03-26 07:20:01 51°16.266 2°54.339 331.3 0.3 340 12.9
2007-03-26 07:20:06 51°16.266 2°54.339 331.2 0.4 349 13
2007-03-26 07:20:11 51°16.267 2°54.339 331.4 0.3 343 12.9
2007-03-26 07:20:16 51°16.267 2°54.339 331.7 0.3 353 12.9
2007-03-26 07:20:21 51°16.268 2°54.338 331.6 0.4 348 12.9
2007-03-26 07:20:25 51°16.268 2°54.338 331.9 0.3 344 12.9
2007-03-26 07:20:31 51°16.269 2°54.338 332.3 0.3 359 13.1
2007-03-26 07:20:36 51°16.269 2°54.338 332.4 0.3 336 12.9
2007-03-26 07:20:41 51°16.269 2°54.337 332.4 0.3 352 12.9
2007-03-26 07:20:46 51°16.27 2°54.337 332.5 0.3 356 12.9
2007-03-26 07:20:50 51°16.271 2°54.337 332.5 0.4 339 12.9
2007-03-26 07:20:56 51°16.271 2°54.337 332.9 0.3 355 12.9
2007-03-26 07:21:01 51°16.271 2°54.337 333.2 0.3 351 12.9
2007-03-26 07:21:06 51°16.272 2°54.337 333.1 0.3 344 12.9
2007-03-26 07:21:11 51°16.272 2°54.337 333.2 0.3 350 12.9
2007-03-26 07:21:15 51°16.273 2°54.337 333.1 0.3 352 12.9
2007-03-26 07:21:21 51°16.273 2°54.337 333 0.2 348 12.9
2007-03-26 07:21:26 51°16.274 2°54.337 332.9 0.3 351 12.9
2007-03-26 07:21:31 51°16.274 2°54.336 332.9 0.3 349 13.1
2007-03-26 07:21:35 51°16.274 2°54.336 332.7 0.3 348 13
2007-03-26 07:21:41 51°16.275 2°54.336 333 0.3 6 13
2007-03-26 07:21:46 51°16.275 2°54.336 333.1 0.3 341 12.9
2007-03-26 07:21:51 51°16.275 2°54.336 333.1 0.3 337 13
2007-03-26 07:21:55 51°16.276 2°54.336 333.6 0.3 8 12.9
2007-03-26 07:21:59 51°16.276 2°54.336 333.6 0.2 347 12.9
2007-03-26 07:22:06 51°16.277 2°54.335 333.5 0.3 336 13.1
2007-03-26 07:22:11 51°16.277 2°54.335 333.8 0.3 8 13.1
2007-03-26 07:22:15 51°16.277 2°54.335 333.8 0.3 342 13
2007-03-26 07:22:20 51°16.278 2°54.335 333.7 0.3 331 13
2007-03-26 07:22:26 51°16.278 2°54.335 334.2 0.3 -999 13
2007-03-26 07:22:31 51°16.278 2°54.334 334.2 0.3 338 12.8
2007-03-26 07:22:36 51°16.279 2°54.334 334 0.3 343 12.8
2007-03-26 07:22:41 51°16.279 2°54.334 334.3 0.3 355 12.9
2007-03-26 07:22:46 51°16.279 2°54.334 334.2 0.3 342 12.8
2007-03-26 07:22:51 51°16.28 2°54.333 334.2 0.3 324 12.9
2007-03-26 07:22:56 51°16.28 2°54.333 334.4 0.3 339 13
2007-03-26 07:23:01 51°16.281 2°54.333 334.5 0.3 318 12.9
2007-03-26 07:23:06 51°16.281 2°54.333 334.3 0.3 343 12.9
2007-03-26 07:23:10 51°16.281 2°54.333 334.3 0.2 347 12.9
2007-03-26 07:23:16 51°16.281 2°54.333 334.2 0.2 352 13.1
2007-03-26 07:23:21 51°16.282 2°54.333 334 0.2 -999 12.9
2007-03-26 07:23:26 51°16.282 2°54.332 333.8 0.2 333 12.9
2007-03-26 07:23:31 51°16.282 2°54.332 334 0.2 358 12.9
2007-03-26 07:23:35 51°16.283 2°54.332 333.9 0.1 339 12.9
2007-03-26 07:23:41 51°16.283 2°54.332 333.8 0.1 344 12.9
2007-03-26 07:23:46 51°16.283 2°54.331 333.7 0.2 331 13.1
2007-03-26 07:23:51 51°16.284 2°54.331 333.6 0.3 345 12.8
2007-03-26 07:23:55 51°16.284 2°54.331 333 0.5 337 12.8
2007-03-26 07:23:59 51°16.285 2°54.33 332.7 0.6 335 12.9
2007-03-26 07:24:06 51°16.286 2°54.329 332.4 0.9 325 12.8
2007-03-26 07:24:11 51°16.288 2°54.327 332.7 1.2 333 12.9
2007-03-26 07:24:15 51°16.289 2°54.326 332.7 1.8 332 12.9
2007-03-26 07:24:20 51°16.292 2°54.324 332.8 2.3 333 12.9
2007-03-26 07:24:26 51°16.296 2°54.32 333.1 2.7 333 12.9
2007-03-26 07:24:31 51°16.3 2°54.317 333 3.2 332 13
2007-03-26 07:24:35 51°16.304 2°54.314 332.3 3.6 332 12.9
2007-03-26 07:24:41 51°16.31 2°54.308 330.9 4.4 330 13
2007-03-26 07:24:46 51°16.316 2°54.301 329 5.3 327 13
2007-03-26 07:24:51 51°16.323 2°54.293 325.8 6.1 323 12.9
2007-03-26 07:24:56 51°16.33 2°54.283 321.5 6.8 318 12.9
2007-03-26 07:25:01 51°16.338 2°54.271 317 7.5 315 12.9
2007-03-26 07:25:05 51°16.344 2°54.26 314.3 8.1 312 12.8
2007-03-26 07:25:10 51°16.352 2°54.245 312.2 8.9 310 12.8
2007-03-26 07:25:16 51°16.361 2°54.225 310.1 9.5 308 12.8
2007-03-26 07:25:21 51°16.369 2°54.207 308.4 10 305 12.9
2007-03-26 07:25:26 51°16.378 2°54.187 306.9 10.5 305 12.8
2007-03-26 07:25:30 51°16.385 2°54.171 305.5 10.9 303 12.8
2007-03-26 07:25:35 51°16.393 2°54.15 304.8 11.3 304 12.9
2007-03-26 07:25:41 51°16.404 2°54.124 304.6 11.6 303 12.8
2007-03-26 07:25:46 51°16.413 2°54.102 303.7 11.9 303 12.8
2007-03-26 07:25:50 51°16.42 2°54.083 304.1 12.3 303 12.8
2007-03-26 07:25:55 51°16.429 2°54.06 303.8 12.6 303 12.9
2007-03-26 07:26:01 51°16.441 2°54.031 303.6 12.8 302 12.9
2007-03-26 07:26:06 51°16.451 2°54.007 304 12.9 303 12.9
2007-03-26 07:26:11 51°16.46 2°53.983 304 13 302 12.7
2007-03-26 07:26:15 51°16.468 2°53.964 304.3 13 302 12.6
2007-03-26 07:26:21 51°16.479 2°53.934 303.2 13 302 12.7
2007-03-26 07:26:26 51°16.489 2°53.909 303.7 13.3 302 13
2007-03-26 07:26:31 51°16.498 2°53.884 303.7 13.4 301 12.8
2007-03-26 07:26:36 51°16.508 2°53.859 303.1 13.4 302 12.9
2007-03-26 07:26:39 51°16.514 2°53.844 303 13.4 302 13.1
2007-03-26 07:26:46 51°16.528 2°53.809 303.6 13.5 302 13.1
2007-03-26 07:26:51 51°16.538 2°53.783 303.4 13.6 302 12.9
2007-03-26 07:26:56 51°16.548 2°53.758 304 13.5 303 12.9
2007-03-26 07:27:01 51°16.558 2°53.733 303.9 13.5 302 12.8
2007-03-26 07:27:06 51°16.569 2°53.708 303.7 13.5 304 13.2
2007-03-26 07:27:11 51°16.579 2°53.682 303.9 13.6 302 13
2007-03-26 07:27:16 51°16.589 2°53.657 303.9 13.6 303 13
2007-03-26 07:27:21 51°16.599 2°53.632 304 13.5 301 13.2
2007-03-26 07:27:26 51°16.61 2°53.607 303.4 13.5 303 13
2007-03-26 07:27:31 51°16.619 2°53.581 303.3 13.6 302 13
2007-03-26 07:27:36 51°16.63 2°53.556 303.5 13.6 303 12.9
2007-03-26 07:27:41 51°16.64 2°53.531 303.4 13.5 303 13.1
2007-03-26 07:27:46 51°16.649 2°53.506 303.5 13.5 301 13
2007-03-26 07:27:51 51°16.66 2°53.481 303.3 13.5 303 12.9
2007-03-26 07:27:56 51°16.67 2°53.455 303 13.5 302 13
2007-03-26 07:28:01 51°16.679 2°53.429 302.4 13.7 301 12.9
2007-03-26 07:28:06 51°16.69 2°53.405 302.9 13.7 304 13
2007-03-26 07:28:10 51°16.698 2°53.384 303.9 13.6 301 13
2007-03-26 07:28:15 51°16.708 2°53.358 303.4 13.6 303 12.8
2007-03-26 07:28:21 51°16.72 2°53.329 303.8 13.5 304 12.5
2007-03-26 07:28:26 51°16.731 2°53.303 304.8 13.6 302 12.6
2007-03-26 07:28:31 51°16.741 2°53.278 303.8 13.6 304 12.8
2007-03-26 07:28:35 51°16.749 2°53.258 304.1 13.5 302 12.6
2007-03-26 07:28:40 51°16.76 2°53.234 303.9 13.5 305 12.9
2007-03-26 07:28:46 51°16.772 2°53.203 303.3 13.6 303 12.7
2007-03-26 07:28:51 51°16.784 2°53.179 305.4 13.6 307 12.6
2007-03-26 07:28:56 51°16.795 2°53.155 307 13.6 307 12.4
2007-03-26 07:29:00 51°16.804 2°53.136 308.4 13.7 309 12.3
2007-03-26 07:29:06 51°16.819 2°53.109 309.6 13.6 309 11.9
2007-03-26 07:29:11 51°16.831 2°53.085 309.6 13.7 310 11.3
2007-03-26 07:29:16 51°16.843 2°53.062 310.9 13.7 311 10.9
2007-03-26 07:29:20 51°16.853 2°53.044 311.6 13.6 311 10.4
2007-03-26 07:29:26 51°16.868 2°53.017 311.7 13.5 310 10.1
2007-03-26 07:29:31 51°16.88 2°52.995 311.2 13.5 311 10
2007-03-26 07:29:36 51°16.892 2°52.972 311.4 13.5 310 9.9
2007-03-26 07:29:41 51°16.905 2°52.949 310.9 13.6 311 10
2007-03-26 07:29:46 51°16.917 2°52.926 311 13.6 309 10
2007-03-26 07:29:50 51°16.926 2°52.907 310.4 13.7 310 10.4
2007-03-26 07:29:56 51°16.941 2°52.879 310.8 13.8 310 10.5
2007-03-26 07:30:01 51°16.953 2°52.856 310.1 13.8 310 10.6
2007-03-26 07:30:06 51°16.966 2°52.833 310.6 13.9 311 10.9
2007-03-26 07:30:11 51°16.979 2°52.809 310.9 13.9 311 11.2
2007-03-26 07:30:15 51°16.989 2°52.791 311.9 13.9 312 11
2007-03-26 07:30:21 51°17.004 2°52.764 312.2 13.9 312 11.2
2007-03-26 07:30:26 51°17.018 2°52.741 313 14 313 11.5
2007-03-26 07:30:31 51°17.031 2°52.719 313.8 13.8 312 11.4
2007-03-26 07:30:36 51°17.044 2°52.696 314.1 13.9 312 11.6
2007-03-26 07:30:40 51°17.054 2°52.678 314.4 13.9 313 11.6
2007-03-26 07:30:46 51°17.07 2°52.652 314.1 13.9 314 11.2
2007-03-26 07:30:51 51°17.083 2°52.63 314.3 13.7 313 11.1
2007-03-26 07:30:55 51°17.093 2°52.612 314 13.8 312 10.9
2007-03-26 07:30:59 51°17.104 2°52.594 313.9 13.8 314 11.1
2007-03-26 07:31:06 51°17.123 2°52.564 314.8 13.7 315 11
2007-03-26 07:31:11 51°17.137 2°52.543 316.6 13.8 317 11.3
2007-03-26 07:31:16 51°17.152 2°52.523 318.6 13.8 319 11.4
2007-03-26 07:31:21 51°17.166 2°52.503 319.6 13.9 318 11.4
2007-03-26 07:31:26 51°17.181 2°52.483 320.3 13.9 320 11.4
2007-03-26 07:31:31 51°17.196 2°52.464 320.8 13.9 320 11.7
2007-03-26 07:31:36 51°17.211 2°52.445 321.5 13.9 321 11.5
2007-03-26 07:31:41 51°17.226 2°52.425 322 14 320 11.6
2007-03-26 07:31:46 51°17.241 2°52.406 322.5 13.9 321 11.6
2007-03-26 07:31:51 51°17.256 2°52.386 322 13.9 320 11.7
2007-03-26 07:31:56 51°17.271 2°52.367 322.7 14.1 321 11.8
2007-03-26 07:32:01 51°17.286 2°52.348 322.4 13.9 321 11.7
2007-03-26 07:32:06 51°17.301 2°52.329 322.4 13.9 321 11.9
2007-03-26 07:32:10 51°17.313 2°52.313 322.6 13.9 321 11.7
2007-03-26 07:32:16 51°17.331 2°52.29 322.2 13.9 321 11.5
2007-03-26 07:32:21 51°17.346 2°52.271 322.2 13.9 322 11.9
2007-03-26 07:32:26 51°17.361 2°52.251 322.5 14 321 11.9
2007-03-26 07:32:31 51°17.377 2°52.232 322 14 322 12
2007-03-26 07:32:36 51°17.392 2°52.213 322.6 14 322 12.2
2007-03-26 07:32:41 51°17.407 2°52.194 322.3 13.9 321 12
2007-03-26 07:32:46 51°17.422 2°52.174 322.4 13.8 321 11.9
2007-03-26 07:32:51 51°17.437 2°52.155 322.2 13.9 321 12
2007-03-26 07:32:55 51°17.449 2°52.139 322 14 321 12.1
2007-03-26 07:32:59 51°17.461 2°52.123 322.1 13.9 322 11.9
2007-03-26 07:33:06 51°17.482 2°52.096 322.2 13.9 321 11.9
2007-03-26 07:33:11 51°17.497 2°52.077 321.9 13.9 321 12.1
2007-03-26 07:33:16 51°17.512 2°52.058 321.9 14 321 12.1
2007-03-26 07:33:20 51°17.524 2°52.042 322.3 13.9 321 12
2007-03-26 07:33:26 51°17.542 2°52.019 322.3 13.9 321 12
2007-03-26 07:33:31 51°17.557 2°52 322.3 13.8 321 11.8
2007-03-26 07:33:36 51°17.572 2°51.981 322.4 14 321 11.9
2007-03-26 07:33:41 51°17.587 2°51.962 322.4 13.8 322 12
2007-03-26 07:33:46 51°17.602 2°51.943 322.5 13.7 321 11.8
2007-03-26 07:33:51 51°17.617 2°51.924 322.2 13.8 321 11.9
2007-03-26 07:33:56 51°17.632 2°51.905 322.2 13.9 322 11.9
2007-03-26 07:34:01 51°17.647 2°51.886 322.6 13.8 321 11.6
2007-03-26 07:34:06 51°17.662 2°51.867 322.4 13.9 321 11.6
2007-03-26 07:34:11 51°17.677 2°51.848 322.5 13.9 322 11.6
2007-03-26 07:34:16 51°17.692 2°51.828 322.6 13.9 321 11.6
2007-03-26 07:34:21 51°17.708 2°51.809 322.7 14 322 11.6
2007-03-26 07:34:26 51°17.722 2°51.79 322.9 13.8 322 11.5
2007-03-26 07:34:31 51°17.737 2°51.771 322.9 13.8 321 11.6
2007-03-26 07:34:36 51°17.752 2°51.752 322.5 13.9 322 11.5
2007-03-26 07:34:41 51°17.768 2°51.732 322.5 13.9 321 11.6
2007-03-26 07:34:46 51°17.783 2°51.714 322.5 13.9 322 11.5
2007-03-26 07:34:50 51°17.794 2°51.698 322.8 13.9 321 11.6
2007-03-26 07:34:55 51°17.809 2°51.679 322.3 13.8 322 11.4
2007-03-26 07:35:01 51°17.828 2°51.656 322.2 13.9 321 11.7
2007-03-26 07:35:06 51°17.843 2°51.638 322.5 14 323 11.7
2007-03-26 07:35:11 51°17.858 2°51.618 322.9 13.9 322 11.6
2007-03-26 07:35:15 51°17.87 2°51.603 322.7 13.9 323 11.4
2007-03-26 07:35:21 51°17.889 2°51.58 322.8 13.9 322 11.9
2007-03-26 07:35:26 51°17.904 2°51.561 322.8 13.9 321 11.7
2007-03-26 07:35:31 51°17.918 2°51.542 322.2 13.8 321 11.9
2007-03-26 07:35:36 51°17.933 2°51.522 321.8 13.9 321 12
2007-03-26 07:35:40 51°17.945 2°51.507 322 13.8 321 11.7
2007-03-26 07:35:46 51°17.963 2°51.483 321.5 13.8 320 12.2
2007-03-26 07:35:51 51°17.978 2°51.465 321.9 13.8 322 12.1
2007-03-26 07:35:56 51°17.993 2°51.445 322 13.9 320 12.3
2007-03-26 07:36:01 51°18.008 2°51.426 322.4 14 322 12.3
2007-03-26 07:36:06 51°18.023 2°51.407 322.2 13.8 321 12.5
2007-03-26 07:36:11 51°18.038 2°51.387 322.1 13.7 321 12.5
2007-03-26 07:36:16 51°18.053 2°51.368 321.9 13.7 320 12.8
2007-03-26 07:36:21 51°18.067 2°51.348 321.6 13.8 319 12.8
2007-03-26 07:36:26 51°18.082 2°51.328 321.4 13.8 319 13.1
2007-03-26 07:36:31 51°18.096 2°51.308 321.5 13.8 320 13.2
2007-03-26 07:36:36 51°18.11 2°51.289 321.7 13.5 319 13.4
2007-03-26 07:36:41 51°18.124 2°51.271 322 12.8 321 13.4
2007-03-26 07:36:46 51°18.137 2°51.255 322.4 12.2 321 13.6
2007-03-26 07:36:51 51°18.149 2°51.239 322.9 11.5 322 13.4
2007-03-26 07:36:56 51°18.161 2°51.225 323.7 10.7 323 13.4
2007-03-26 07:37:01 51°18.173 2°51.211 324.4 10.3 323 13.5
2007-03-26 07:37:06 51°18.184 2°51.198 324.5 10.1 323 14
2007-03-26 07:37:11 51°18.195 2°51.185 325.2 9.7 324 13.8
2007-03-26 07:37:15 51°18.203 2°51.176 325.8 9.3 325 13.9
2007-03-26 07:37:21 51°18.215 2°51.162 326.4 9 326 14.1
2007-03-26 07:37:26 51°18.225 2°51.152 326.9 8.7 326 14.2
2007-03-26 07:37:31 51°18.235 2°51.141 327.3 8.5 326 14.3
2007-03-26 07:37:35 51°18.242 2°51.132 327.8 8.4 326 14.5
2007-03-26 07:37:41 51°18.254 2°51.121 328.7 8.3 328 14.5
2007-03-26 07:37:46 51°18.264 2°51.111 329.5 8.2 328 14.6
2007-03-26 07:37:51 51°18.273 2°51.102 329.8 8.1 329 14.6
2007-03-26 07:37:56 51°18.283 2°51.093 330.2 7.9 329 14.7
2007-03-26 07:38:00 51°18.29 2°51.086 330.5 7.7 329 14.7
2007-03-26 07:38:06 51°18.301 2°51.076 330.8 7.4 329 14.7
2007-03-26 07:38:11 51°18.309 2°51.068 330.7 7.2 329 14.8
2007-03-26 07:38:16 51°18.318 2°51.061 331.3 7 332 14.7
2007-03-26 07:38:20 51°18.324 2°51.055 333.1 6.7 333 14.7
2007-03-26 07:38:26 51°18.334 2°51.048 335 6.6 336 14.7
2007-03-26 07:38:31 51°18.343 2°51.043 337.8 6.5 339 14.9
2007-03-26 07:38:36 51°18.351 2°51.039 341.2 6.4 341 14.9
2007-03-26 07:38:41 51°18.359 2°51.035 344.7 6.2 344 14.9
2007-03-26 07:38:46 51°18.367 2°51.032 347.6 6 347 14.9
2007-03-26 07:38:51 51°18.375 2°51.03 350.6 5.8 350 14.9
2007-03-26 07:38:56 51°18.383 2°51.029 354.1 5.6 353 15
2007-03-26 07:39:01 51°18.39 2°51.028 357.1 5.3 355 15
2007-03-26 07:39:06 51°18.396 2°51.027 359.1 5 356 15
2007-03-26 07:39:11 51°18.403 2°51.026 0.3 4.9 356 15.1
2007-03-26 07:39:16 51°18.41 2°51.026 0.9 4.7 357 15.2
2007-03-26 07:39:21 51°18.416 2°51.025 1.3 4.6 357 15.2
2007-03-26 07:39:26 51°18.422 2°51.025 1.7 4.5 358 15.4
2007-03-26 07:39:31 51°18.428 2°51.025 2.4 4.3 357 15.1
2007-03-26 07:39:35 51°18.433 2°51.024 2.1 4.3 356 15.3
2007-03-26 07:39:41 51°18.44 2°51.024 2.1 4.2 358 15.1
2007-03-26 07:39:46 51°18.446 2°51.023 1.8 4.1 357 15.1
2007-03-26 07:39:51 51°18.451 2°51.023 1.9 4 358 15.2
2007-03-26 07:39:55 51°18.455 2°51.023 2.3 3.8 358 15.2
2007-03-26 07:40:01 51°18.462 2°51.023 2.6 3.6 359 15.3
2007-03-26 07:40:06 51°18.466 2°51.022 2.7 3.4 359 15.2
2007-03-26 07:40:11 51°18.471 2°51.022 2.9 3.3 357 15.3
2007-03-26 07:40:15 51°18.474 2°51.022 3.4 3.1 -999 15.3
2007-03-26 07:40:21 51°18.478 2°51.022 4.5 2.7 -999 15.2
2007-03-26 07:40:26 51°18.482 2°51.022 5.7 2.5 1 15.3
2007-03-26 07:40:31 51°18.485 2°51.022 7.3 2.2 358 15.3
2007-03-26 07:40:35 51°18.487 2°51.022 9.9 1.9 -999 15.4
2007-03-26 07:40:41 51°18.489 2°51.022 12.4 1.6 -999 15.3
2007-03-26 07:40:46 51°18.491 2°51.022 14.5 1.4 356 15.3
2007-03-26 07:40:51 51°18.493 2°51.022 15.7 1.2 352 15.4
2007-03-26 07:40:55 51°18.494 2°51.022 17 1 356 15.3
2007-03-26 07:41:01 51°18.495 2°51.021 17.8 0.8 340 15.4
2007-03-26 07:41:06 51°18.496 2°51.021 18.2 0.5 332 15.4
2007-03-26 07:41:11 51°18.496 2°51.02 18.3 0.5 310 15.4
2007-03-26 07:41:15 51°18.497 2°51.019 18 0.4 304 15.3
2007-03-26 07:41:21 51°18.497 2°51.018 17.2 0.5 302 15.3
2007-03-26 07:41:26 51°18.497 2°51.017 15.9 0.5 300 15.3
2007-03-26 07:41:31 51°18.498 2°51.016 14.1 0.4 297 15.3
2007-03-26 07:41:35 51°18.498 2°51.015 11.9 0.5 291 15.3
2007-03-26 07:41:41 51°18.498 2°51.015 9.6 0.4 301 15.4
2007-03-26 07:41:46 51°18.499 2°51.014 7.5 0.4 298 15.4
2007-03-26 07:41:51 51°18.499 2°51.013 5.2 0.3 295 15.3
2007-03-26 07:41:55 51°18.499 2°51.013 3.3 0.3 296 15.4
2007-03-26 07:42:01 51°18.499 2°51.012 1 0.4 291 15.3
2007-03-26 07:42:06 51°18.499 2°51.011 358.5 0.4 292 15.4
2007-03-26 07:42:11 51°18.5 2°51.011 356.4 0.3 297 15.4
2007-03-26 07:42:15 51°18.5 2°51.01 354.6 0.3 304 5.1
2007-03-26 07:42:19 51°18.5 2°51.01 352.8 0.3 295 4.7
2007-03-26 07:42:26 51°18.5 2°51.009 351.3 0.2 278 15.3
2007-03-26 07:42:31 51°18.501 2°51.008 349.8 0.3 296 4.6
2007-03-26 07:42:35 51°18.501 2°51.008 348.1 0.4 318 4.8
2007-03-26 07:42:41 51°18.501 2°51.007 346.3 0.5 299 5
2007-03-26 07:42:46 51°18.501 2°51.007 344.7 0.3 318 15.2
2007-03-26 07:42:51 51°18.501 2°51.006 342.5 0.4 295 15.2
2007-03-26 07:42:55 51°18.502 2°51.006 340.3 0.3 303 15.2
2007-03-26 07:43:01 51°18.502 2°51.006 338.6 0.2 304 15.2
2007-03-26 07:43:06 51°18.502 2°51.005 336.6 0.2 291 15.2
2007-03-26 07:43:11 51°18.502 2°51.005 334.3 0.2 298 15.2
2007-03-26 07:43:16 51°18.502 2°51.004 332.4 0.2 295 15.3
2007-03-26 07:43:21 51°18.502 2°51.004 331 0.1 260 15.4
2007-03-26 07:43:26 51°18.502 2°51.004 329.5 0.2 306 15.4
2007-03-26 07:43:31 51°18.502 2°51.003 328 0.2 299 15.3
2007-03-26 07:43:35 51°18.502 2°51.004 326.6 -999 324 15.3
2007-03-26 07:43:41 51°18.502 2°51.003 325.7 0.1 248 15.4
2007-03-26 07:43:46 51°18.503 2°51.003 323.9 0.2 293 15.4
2007-03-26 07:43:50 51°18.503 2°51.003 322.6 0.1 298 15.4
2007-03-26 07:43:55 51°18.503 2°51.002 321.4 0.2 334 15.5
2007-03-26 07:44:01 51°18.503 2°51.002 320.2 0.2 313 15.4
2007-03-26 07:44:06 51°18.503 2°51.002 318.8 0.2 313 15.4
2007-03-26 07:44:11 51°18.503 2°51.002 317.9 0.1 330 15.3
2007-03-26 07:44:15 51°18.503 2°51.001 316.7 0.1 241 15.3
2007-03-26 07:44:21 51°18.504 2°51.001 315 0.1 291 15.3
2007-03-26 07:44:26 51°18.504 2°51 313.5 0.2 308 15.2
2007-03-26 07:44:31 51°18.504 2°51 312.8 0.2 310 15.2
2007-03-26 07:44:36 51°18.504 2°51 311.4 0.3 333 15.3
2007-03-26 07:44:40 51°18.504 2°51 310.5 0.2 307 15.5
2007-03-26 07:44:46 51°18.505 2°50.999 309.6 0.2 327 15.4
2007-03-26 07:44:51 51°18.505 2°50.999 309 0.2 316 15.5
2007-03-26 07:44:56 51°18.505 2°50.999 308.4 0.3 304 15.5
2007-03-26 07:45:01 51°18.505 2°50.998 307.9 0.3 299 15.5
2007-03-26 07:45:06 51°18.506 2°50.998 307.7 0.3 322 15.5
2007-03-26 07:45:11 51°18.506 2°50.997 307.4 0.4 313 15.4
2007-03-26 07:45:16 51°18.506 2°50.997 307 0.3 304 15.4
2007-03-26 07:45:21 51°18.507 2°50.997 306.8 0.3 311 15.3
2007-03-26 07:45:26 51°18.507 2°50.996 306.4 0.3 320 15.4
2007-03-26 07:45:31 51°18.507 2°50.996 306.2 0.4 331 15.3
2007-03-26 07:45:36 51°18.508 2°50.995 306.1 0.4 305 15.4
2007-03-26 07:45:41 51°18.508 2°50.995 305.5 0.4 305 15.4
2007-03-26 07:45:46 51°18.508 2°50.994 305.7 0.4 300 15.3
2007-03-26 07:45:50 51°18.509 2°50.994 305.9 0.3 307 15.3
2007-03-26 07:45:56 51°18.509 2°50.993 305.8 0.4 303 15.3
2007-03-26 07:46:01 51°18.509 2°50.992 305.8 0.4 324 15.4
2007-03-26 07:46:06 51°18.509 2°50.992 305.6 0.3 291 15.4
2007-03-26 07:46:11 51°18.51 2°50.991 305.5 0.4 314 15.3
2007-03-26 07:46:16 51°18.51 2°50.99 305.5 0.4 302 15.4
2007-03-26 07:46:21 51°18.51 2°50.99 305.5 0.4 310 15.4
2007-03-26 07:46:26 51°18.51 2°50.989 305.6 0.4 315 15.4
2007-03-26 07:46:31 51°18.511 2°50.988 305.7 0.4 314 15.4
2007-03-26 07:46:36 51°18.511 2°50.987 305.9 0.5 317 15.4
2007-03-26 07:46:41 51°18.512 2°50.987 306.8 0.5 302 15.5
2007-03-26 07:46:46 51°18.512 2°50.986 307.2 0.5 288 15.4
2007-03-26 07:46:51 51°18.512 2°50.985 308.1 0.4 321 15.3
2007-03-26 07:46:56 51°18.513 2°50.984 308.3 0.4 316 15.3
2007-03-26 07:47:00 51°18.513 2°50.984 308.2 0.4 294 15.3
2007-03-26 07:47:06 51°18.513 2°50.983 308.9 0.4 326 15.3
2007-03-26 07:47:11 51°18.514 2°50.982 309.1 0.4 307 15.4
2007-03-26 07:47:16 51°18.514 2°50.981 309.2 0.5 305 15.4
2007-03-26 07:47:21 51°18.514 2°50.98 310.2 0.5 323 15.3
2007-03-26 07:47:26 51°18.515 2°50.979 311.1 0.5 299 15.3
2007-03-26 07:47:31 51°18.515 2°50.978 311.5 0.4 294 15.3
2007-03-26 07:47:36 51°18.515 2°50.977 311.3 0.5 298 15.4
2007-03-26 07:47:41 51°18.516 2°50.976 311.9 0.6 293 15.4
2007-03-26 07:47:46 51°18.516 2°50.975 312.8 0.5 313 15.3
2007-03-26 07:47:51 51°18.516 2°50.974 312.8 0.6 306 15.4
2007-03-26 07:47:56 51°18.517 2°50.973 313.3 0.6 321 15.4
2007-03-26 07:48:01 51°18.517 2°50.972 313.9 0.6 302 15.5
2007-03-26 07:48:06 51°18.518 2°50.971 314.5 0.6 318 15.5
2007-03-26 07:48:11 51°18.518 2°50.97 315.3 0.5 311 15.5
2007-03-26 07:48:16 51°18.519 2°50.969 316 0.5 307 15.4
2007-03-26 07:48:21 51°18.519 2°50.968 316.5 0.6 308 15.4
2007-03-26 07:48:26 51°18.519 2°50.967 317.1 0.6 306 15.5
2007-03-26 07:48:31 51°18.52 2°50.966 317.9 0.6 308 15.5
2007-03-26 07:48:35 51°18.52 2°50.965 318.6 0.6 308 15.5
2007-03-26 07:48:41 51°18.521 2°50.964 319.3 0.6 307 15.5
2007-03-26 07:48:46 51°18.522 2°50.964 320 0.6 323 15.3
2007-03-26 07:48:51 51°18.522 2°50.963 320.3 0.6 313 15.3
2007-03-26 07:48:55 51°18.523 2°50.962 320.7 0.6 321 15.3
2007-03-26 07:49:00 51°18.523 2°50.961 321.5 0.6 314 15.3
2007-03-26 07:49:06 51°18.524 2°50.96 322.4 0.5 313 15.4
2007-03-26 07:49:11 51°18.524 2°50.959 323 0.5 316 15.5
2007-03-26 07:49:16 51°18.525 2°50.959 324.2 0.6 328 15.5
2007-03-26 07:49:20 51°18.525 2°50.958 324.8 0.6 303 15.4
2007-03-26 07:49:26 51°18.526 2°50.957 325.2 0.5 327 15.3
2007-03-26 07:49:31 51°18.527 2°50.956 326 0.5 324 15.3
2007-03-26 07:49:36 51°18.527 2°50.955 326.2 0.6 310 15.5
2007-03-26 07:49:41 51°18.528 2°50.954 326.9 0.5 315 15.4
2007-03-26 07:49:46 51°18.528 2°50.953 327.7 0.4 332 15.3
2007-03-26 07:49:51 51°18.528 2°50.952 328.4 0.6 302 15.3
2007-03-26 07:49:56 51°18.529 2°50.951 328.8 0.6 303 15.2
2007-03-26 07:50:01 51°18.53 2°50.95 330 0.5 314 15.3
2007-03-26 07:50:05 51°18.53 2°50.949 330.2 0.6 313 15.3
2007-03-26 07:50:11 51°18.531 2°50.948 330.2 0.6 306 15.4
2007-03-26 07:50:16 51°18.531 2°50.947 330.5 0.6 318 15.4
2007-03-26 07:50:21 51°18.532 2°50.946 330.4 0.7 310 15.5
2007-03-26 07:50:26 51°18.532 2°50.945 330.7 0.6 316 15.5
2007-03-26 07:50:31 51°18.533 2°50.944 331.3 0.5 323 15.4
2007-03-26 07:50:36 51°18.533 2°50.943 331.3 0.6 316 15.5
2007-03-26 07:50:41 51°18.534 2°50.942 331.2 0.6 315 15.6
2007-03-26 07:50:46 51°18.534 2°50.941 331.7 0.5 315 15.5
2007-03-26 07:50:51 51°18.535 2°50.94 332 0.6 316 15.5
2007-03-26 07:50:55 51°18.535 2°50.939 332 0.7 309 15.5
2007-03-26 07:51:01 51°18.536 2°50.938 332.6 0.6 309 15.4
2007-03-26 07:51:06 51°18.536 2°50.937 333 0.6 306 15.4
2007-03-26 07:51:11 51°18.537 2°50.936 332.7 0.7 299 15.4
2007-03-26 07:51:15 51°18.537 2°50.935 333 0.5 314 15.4
2007-03-26 07:51:19 51°18.537 2°50.934 332.6 0.5 307 15.4
2007-03-26 07:51:25 51°18.538 2°50.933 332.5 0.5 307 15.5
2007-03-26 07:51:31 51°18.539 2°50.932 332.8 0.6 310 15.5
2007-03-26 07:51:35 51°18.539 2°50.931 333 0.5 313 15.5
2007-03-26 07:51:41 51°18.539 2°50.93 333.2 0.5 306 15.6
2007-03-26 07:51:46 51°18.54 2°50.929 333.2 0.6 310 15.6
2007-03-26 07:51:51 51°18.54 2°50.928 333.2 0.6 306 15.6
2007-03-26 07:51:55 51°18.541 2°50.927 333.5 0.6 300 15.5
2007-03-26 07:52:01 51°18.541 2°50.926 333.7 0.6 309 15.5
2007-03-26 07:52:06 51°18.542 2°50.925 333.6 0.6 309 15.5
2007-03-26 07:52:10 51°18.542 2°50.925 333.4 0.5 303 15.3
2007-03-26 07:52:15 51°18.543 2°50.924 333.4 0.5 297 15.3
2007-03-26 07:52:21 51°18.543 2°50.923 332.8 0.5 297 15.3
2007-03-26 07:52:26 51°18.543 2°50.922 332.1 0.5 294 15.3
2007-03-26 07:52:30 51°18.543 2°50.921 331.6 0.5 293 15.4
2007-03-26 07:52:35 51°18.544 2°50.92 331.5 0.5 302 15.5
2007-03-26 07:52:41 51°18.544 2°50.919 331.5 0.5 296 15.5
2007-03-26 07:52:46 51°18.545 2°50.918 331.1 0.5 296 15.5
2007-03-26 07:52:51 51°18.545 2°50.916 331 0.6 297 15.5
2007-03-26 07:52:55 51°18.546 2°50.915 330.3 1.1 311 15.5
2007-03-26 07:53:01 51°18.548 2°50.912 328.5 1.5 316 15.6
2007-03-26 07:53:06 51°18.55 2°50.909 324.8 1.7 320 15.5
2007-03-26 07:53:11 51°18.552 2°50.907 319.6 1.8 319 15.4
2007-03-26 07:53:15 51°18.553 2°50.904 315.3 1.8 314 15.4
2007-03-26 07:53:21 51°18.555 2°50.901 312.9 1.8 315 15.4
2007-03-26 07:53:26 51°18.557 2°50.898 312 1.7 314 15.5
2007-03-26 07:53:31 51°18.559 2°50.895 311 2.1 318 15.5
2007-03-26 07:53:36 51°18.562 2°50.889 310.6 3.2 312 15.5
2007-03-26 07:53:41 51°18.567 2°50.883 312.3 4.1 316 15.7
2007-03-26 07:53:46 51°18.572 2°50.875 315.9 4.9 319 15.6
2007-03-26 07:53:50 51°18.577 2°50.87 320.8 5.6 325 15.7
2007-03-26 07:53:55 51°18.585 2°50.863 327 6.2 331 15.5
2007-03-26 07:54:01 51°18.595 2°50.856 333.2 6.7 337 15.6
2007-03-26 07:54:06 51°18.605 2°50.851 340.2 7.2 343 15.6
2007-03-26 07:54:11 51°18.616 2°50.849 348 7.7 349 15.8
2007-03-26 07:54:16 51°18.627 2°50.847 353.3 8.1 355 15.8
2007-03-26 07:54:21 51°18.639 2°50.848 359.6 8.3 -999 15.7
2007-03-26 07:54:26 51°18.651 2°50.85 4.7 8.6 5 15.8
2007-03-26 07:54:31 51°18.662 2°50.853 10.4 8.7 10 15.8
2007-03-26 07:54:36 51°18.674 2°50.859 15.6 8.9 15 15.8
2007-03-26 07:54:41 51°18.686 2°50.866 21.1 9 20 15.8
2007-03-26 07:54:46 51°18.698 2°50.875 26.6 9.2 25 15.9
2007-03-26 07:54:51 51°18.709 2°50.886 32.1 9.3 29 15.9
2007-03-26 07:54:56 51°18.72 2°50.897 36.2 9.5 31 15.9
2007-03-26 07:55:01 51°18.732 2°50.908 37.2 10 31 15.9
2007-03-26 07:55:06 51°18.745 2°50.921 37 10.8 32 16
2007-03-26 07:55:11 51°18.759 2°50.935 37 11.5 32 16
2007-03-26 07:55:16 51°18.774 2°50.949 37.3 12 32 16
2007-03-26 07:55:21 51°18.789 2°50.964 37.2 12.6 32 15.9
2007-03-26 07:55:26 51°18.804 2°50.978 36.9 13 31 15.9
2007-03-26 07:55:31 51°18.82 2°50.993 36.5 13.3 31 15.9
2007-03-26 07:55:35 51°18.833 2°51.005 36.2 13.4 30 15.9
2007-03-26 07:55:41 51°18.852 2°51.024 36.2 13.6 31 16
2007-03-26 07:55:46 51°18.868 2°51.04 36.5 13.7 31 16
2007-03-26 07:55:51 51°18.884 2°51.056 36.9 13.7 32 16
2007-03-26 07:55:55 51°18.897 2°51.069 37.4 13.8 33 16.1
2007-03-26 07:56:00 51°18.913 2°51.086 37.8 13.7 34 16.1
2007-03-26 07:56:06 51°18.932 2°51.107 39 13.8 34 16.1
2007-03-26 07:56:11 51°18.948 2°51.124 39.1 13.8 34 16
2007-03-26 07:56:16 51°18.964 2°51.141 39.7 13.8 35 16.1
2007-03-26 07:56:21 51°18.979 2°51.16 40.3 13.8 36 16.2
2007-03-26 07:56:26 51°18.994 2°51.178 41.9 13.8 37 16.1
2007-03-26 07:56:31 51°19.009 2°51.197 42.8 13.8 38 16.2
2007-03-26 07:56:36 51°19.024 2°51.216 43.3 13.7 39 16.3
2007-03-26 07:56:41 51°19.039 2°51.236 44.4 13.8 39 16.2
2007-03-26 07:56:46 51°19.053 2°51.256 45.5 13.8 42 16.1
2007-03-26 07:56:51 51°19.067 2°51.276 47.1 13.7 42 16.1
2007-03-26 07:56:56 51°19.081 2°51.298 48.1 13.7 43 15.8
2007-03-26 07:57:01 51°19.095 2°51.319 49.2 13.7 44 16
2007-03-26 07:57:06 51°19.109 2°51.34 49.7 13.8 44 16.3
2007-03-26 07:57:11 51°19.122 2°51.362 50.2 13.7 45 16.1
2007-03-26 07:57:16 51°19.136 2°51.383 50.8 13.8 45 16.3
2007-03-26 07:57:21 51°19.149 2°51.405 50.8 13.8 45 16.4
2007-03-26 07:57:26 51°19.163 2°51.427 51.2 13.8 45 16.4
2007-03-26 07:57:31 51°19.176 2°51.449 51.2 13.8 46 16.4
2007-03-26 07:57:36 51°19.189 2°51.47 51.4 13.7 46 16.4
2007-03-26 07:57:41 51°19.202 2°51.492 51.8 13.7 47 16.4
2007-03-26 07:57:46 51°19.215 2°51.515 52.2 13.7 47 16.4
2007-03-26 07:57:51 51°19.228 2°51.537 52.4 13.8 47 16.5
2007-03-26 07:57:55 51°19.239 2°51.555 53.4 13.7 48 16.5
2007-03-26 07:58:01 51°19.253 2°51.583 54.1 13.7 49 16.5
2007-03-26 07:58:06 51°19.266 2°51.606 54.9 13.7 50 16.5
2007-03-26 07:58:11 51°19.278 2°51.63 55.6 13.7 50 16.6
2007-03-26 07:58:15 51°19.287 2°51.649 56.9 13.8 53 16.6
2007-03-26 07:58:20 51°19.299 2°51.673 57.7 13.8 52 16.6
2007-03-26 07:58:26 51°19.311 2°51.703 59.5 13.8 56 16.6
2007-03-26 07:58:31 51°19.322 2°51.729 61.5 13.7 57 16.6
2007-03-26 07:58:36 51°19.33 2°51.756 64.1 13.6 62 16.5
2007-03-26 07:58:41 51°19.339 2°51.783 66.8 13.7 62 16.6
2007-03-26 07:58:46 51°19.346 2°51.81 69.7 13.6 67 16.6
2007-03-26 07:58:51 51°19.353 2°51.838 73.1 13.5 69 16.8
2007-03-26 07:58:56 51°19.359 2°51.867 75.6 13.5 71 16.5
2007-03-26 07:59:01 51°19.365 2°51.895 77.1 13.5 72 16.6
2007-03-26 07:59:06 51°19.37 2°51.924 78 13.5 72 16.6
2007-03-26 07:59:11 51°19.375 2°51.952 79.3 13.4 74 16.6
2007-03-26 07:59:16 51°19.38 2°51.981 80.1 13.6 75 16.7
2007-03-26 07:59:21 51°19.386 2°52.01 80.3 13.5 73 16.6
2007-03-26 07:59:26 51°19.391 2°52.039 80.1 13.5 76 16.6
2007-03-26 07:59:31 51°19.396 2°52.068 80.5 13.4 73 16.6
2007-03-26 07:59:36 51°19.4 2°52.097 80.5 13.4 76 16.6
2007-03-26 07:59:41 51°19.406 2°52.125 80.9 13.4 73 16.5
2007-03-26 07:59:46 51°19.41 2°52.154 81 13.4 77 16.5
2007-03-26 07:59:51 51°19.416 2°52.182 80.7 13.4 73 16.7
2007-03-26 07:59:56 51°19.42 2°52.211 80.5 13.4 76 16.6
2007-03-26 08:00:00 51°19.425 2°52.234 80.2 13.4 73 16.6
2007-03-26 08:00:05 51°19.43 2°52.263 80.3 13.4 76 16.5
2007-03-26 08:00:11 51°19.436 2°52.297 80.2 13.4 75 16.5
2007-03-26 08:00:15 51°19.44 2°52.32 80.5 13.4 74 16.5
2007-03-26 08:00:21 51°19.446 2°52.354 79.9 13.4 75 16.4
2007-03-26 08:00:26 51°19.451 2°52.383 80.3 13.4 73 16.4
2007-03-26 08:00:31 51°19.456 2°52.411 80.5 13.4 75 16.4
2007-03-26 08:00:35 51°19.46 2°52.434 80.5 13.4 73 16.4
2007-03-26 08:00:39 51°19.464 2°52.457 80.3 13.4 75 16.3
2007-03-26 08:00:46 51°19.471 2°52.497 80.3 13.5 74 16.3
2007-03-26 08:00:51 51°19.477 2°52.525 79.8 13.4 74 16.2
2007-03-26 08:00:56 51°19.482 2°52.554 79.8 13.4 74 16.2
2007-03-26 08:00:59 51°19.485 2°52.571 79.8 13.5 73 16.1
2007-03-26 08:01:06 51°19.492 2°52.611 79.2 13.3 74 16
2007-03-26 08:01:11 51°19.498 2°52.639 79.5 13.4 72 16
2007-03-26 08:01:16 51°19.503 2°52.668 79.4 13.5 74 16
2007-03-26 08:01:20 51°19.508 2°52.691 79.1 13.4 73 16
2007-03-26 08:01:26 51°19.514 2°52.725 79.7 13.5 75 15.9
2007-03-26 08:01:31 51°19.52 2°52.753 79.1 13.5 71 16
2007-03-26 08:01:36 51°19.524 2°52.782 78.9 13.4 75 15.9
2007-03-26 08:01:41 51°19.531 2°52.81 79.1 13.5 72 15.9
2007-03-26 08:01:46 51°19.536 2°52.839 79.1 13.4 74 15.9
2007-03-26 08:01:50 51°19.54 2°52.862 79.1 13.4 74 15.9
2007-03-26 08:01:56 51°19.547 2°52.896 79.5 13.4 73 15.8
2007-03-26 08:02:01 51°19.552 2°52.925 79.2 13.5 74 15.8
2007-03-26 08:02:05 51°19.557 2°52.948 79.2 13.5 73 15.7
2007-03-26 08:02:10 51°19.562 2°52.977 79.1 13.5 74 15.7
2007-03-26 08:02:16 51°19.568 2°53.011 79.3 13.5 73 15.7
2007-03-26 08:02:21 51°19.574 2°53.039 78.9 13.5 73 15.6
2007-03-26 08:02:26 51°19.579 2°53.068 78.8 13.5 72 15.5
2007-03-26 08:02:31 51°19.585 2°53.097 78.4 13.6 73 15.6
2007-03-26 08:02:35 51°19.589 2°53.119 78.7 13.5 72 15.4
2007-03-26 08:02:41 51°19.596 2°53.154 78.3 13.5 73 15.5
2007-03-26 08:02:46 51°19.602 2°53.182 78.6 13.4 72 15.4
2007-03-26 08:02:51 51°19.607 2°53.211 78.4 13.5 73 15.3
2007-03-26 08:02:55 51°19.612 2°53.233 78.6 13.4 72 15.3
2007-03-26 08:02:59 51°19.616 2°53.256 78.4 13.4 73 15.2
2007-03-26 08:03:06 51°19.624 2°53.296 78.7 13.6 73 15.3
2007-03-26 08:03:11 51°19.63 2°53.324 78.2 13.5 72 15.1
2007-03-26 08:03:15 51°19.634 2°53.347 78 13.3 73 15.2
2007-03-26 08:03:20 51°19.64 2°53.376 79 13.5 72 15.1
2007-03-26 08:03:26 51°19.646 2°53.41 78.6 13.5 73 15
2007-03-26 08:03:31 51°19.652 2°53.438 78.4 13.4 73 15
2007-03-26 08:03:36 51°19.658 2°53.466 79 13.5 72 15
2007-03-26 08:03:40 51°19.662 2°53.489 78.3 13.4 74 15
2007-03-26 08:03:46 51°19.669 2°53.523 78.5 13.5 72 14.9
2007-03-26 08:03:51 51°19.674 2°53.552 78.8 13.4 74 14.9
2007-03-26 08:03:56 51°19.68 2°53.58 79.1 13.5 72 14.9
2007-03-26 08:04:01 51°19.685 2°53.609 78.5 13.3 74 14.8
2007-03-26 08:04:06 51°19.691 2°53.637 79 13.4 72 14.7
2007-03-26 08:04:11 51°19.696 2°53.666 79.1 13.4 74 14.8
2007-03-26 08:04:16 51°19.701 2°53.694 78.8 13.5 73 14.6
2007-03-26 08:04:21 51°19.707 2°53.723 79.4 13.4 73 14.7
2007-03-26 08:04:26 51°19.712 2°53.751 78.6 13.4 74 14.5
2007-03-26 08:04:31 51°19.718 2°53.779 79.2 13.5 72 14.5
2007-03-26 08:04:35 51°19.722 2°53.802 78.2 13.4 73 14.6
2007-03-26 08:04:41 51°19.728 2°53.836 78.7 13.4 73 14.5
2007-03-26 08:04:46 51°19.734 2°53.865 78.8 13.4 73 14.5
2007-03-26 08:04:51 51°19.739 2°53.893 78.5 13.5 73 14.5
2007-03-26 08:04:55 51°19.744 2°53.916 78.3 13.5 73 14.4
2007-03-26 08:05:01 51°19.75 2°53.95 78.5 13.5 73 14.5
2007-03-26 08:05:06 51°19.756 2°53.979 78.2 13.4 73 14.4
2007-03-26 08:05:11 51°19.762 2°54.007 78.8 13.4 72 14.3
2007-03-26 08:05:15 51°19.766 2°54.03 78.6 13.5 73 14.4
2007-03-26 08:05:19 51°19.771 2°54.053 78.7 13.5 74 14.4
2007-03-26 08:05:26 51°19.779 2°54.093 78.6 13.5 72 14.3
2007-03-26 08:05:31 51°19.784 2°54.121 78.8 13.5 73 14.3
2007-03-26 08:05:36 51°19.789 2°54.15 78.7 13.4 72 14.3
2007-03-26 08:05:39 51°19.793 2°54.167 78.3 13.4 73 14.1
2007-03-26 08:05:46 51°19.801 2°54.207 78.4 13.4 73 14.1
2007-03-26 08:05:51 51°19.806 2°54.235 78.5 13.5 72 14
2007-03-26 08:05:56 51°19.812 2°54.264 78.3 13.5 74 14.1
2007-03-26 08:06:00 51°19.816 2°54.287 78.5 13.5 72 14.1
2007-03-26 08:06:06 51°19.823 2°54.321 78.3 13.5 73 14.1
2007-03-26 08:06:11 51°19.829 2°54.35 78.7 13.5 72 14.1
2007-03-26 08:06:16 51°19.834 2°54.378 78.7 13.5 73 13.9
2007-03-26 08:06:21 51°19.84 2°54.407 78.7 13.5 72 13.9
2007-03-26 08:06:26 51°19.845 2°54.436 78.7 13.5 73 14
2007-03-26 08:06:31 51°19.851 2°54.464 78.3 13.4 72 14.2
2007-03-26 08:06:36 51°19.856 2°54.493 78.8 13.5 73 14.4
2007-03-26 08:06:41 51°19.862 2°54.522 78.3 13.6 72 14.3
2007-03-26 08:06:46 51°19.868 2°54.551 78.5 13.6 74 14.3
2007-03-26 08:06:51 51°19.874 2°54.579 78.5 13.6 72 14.2
2007-03-26 08:06:55 51°19.878 2°54.602 78.2 13.5 73 14.3
2007-03-26 08:07:01 51°19.885 2°54.636 78.3 13.5 73 14.2
2007-03-26 08:07:06 51°19.891 2°54.665 78.7 13.5 72 14.2
2007-03-26 08:07:11 51°19.896 2°54.693 78 13.5 74 14.2
2007-03-26 08:07:15 51°19.901 2°54.716 78.3 13.5 71 14.2
2007-03-26 08:07:21 51°19.907 2°54.751 78 13.5 74 14.2
2007-03-26 08:07:26 51°19.913 2°54.779 78.2 13.5 71 14.1
2007-03-26 08:07:31 51°19.918 2°54.807 78 13.4 74 14.1
2007-03-26 08:07:35 51°19.923 2°54.83 77.9 13.5 71 14
2007-03-26 08:07:39 51°19.927 2°54.853 78.3 13.5 74 14.2
2007-03-26 08:07:46 51°19.935 2°54.893 78.3 13.5 72 14
2007-03-26 08:07:51 51°19.941 2°54.921 78.3 13.3 74 14.1
2007-03-26 08:07:56 51°19.947 2°54.949 78.4 13.4 71 13.8
2007-03-26 08:08:01 51°19.953 2°54.978 77.9 13.4 73 13.9
2007-03-26 08:08:06 51°19.959 2°55.006 78.3 13.5 72 13.9
2007-03-26 08:08:11 51°19.965 2°55.035 78.3 13.4 72 13.9
2007-03-26 08:08:16 51°19.97 2°55.063 78.1 13.3 73 13.9
2007-03-26 08:08:21 51°19.976 2°55.092 78.3 13.5 73 13.8
2007-03-26 08:08:26 51°19.981 2°55.12 78.4 13.5 72 14
2007-03-26 08:08:31 51°19.986 2°55.148 78.1 13.5 73 14
2007-03-26 08:08:36 51°19.992 2°55.176 78.4 13.5 72 13.9
2007-03-26 08:08:41 51°19.997 2°55.205 78.4 13.4 73 13.9
2007-03-26 08:08:46 51°20.003 2°55.234 78.5 13.5 73 13.8
2007-03-26 08:08:51 51°20.008 2°55.262 78.7 13.5 73 13.8
2007-03-26 08:08:56 51°20.014 2°55.291 78.5 13.5 72 13.7
2007-03-26 08:09:01 51°20.019 2°55.32 78.7 13.5 74 13.8
2007-03-26 08:09:06 51°20.025 2°55.348 78.1 13.4 72 13.7
2007-03-26 08:09:11 51°20.031 2°55.377 78.5 13.5 73 13.7
2007-03-26 08:09:15 51°20.036 2°55.399 78.4 13.5 72 13.7
2007-03-26 08:09:21 51°20.042 2°55.434 78.5 13.4 74 13.7
2007-03-26 08:09:26 51°20.048 2°55.462 78.8 13.5 71 13.8
2007-03-26 08:09:31 51°20.053 2°55.49 77.9 13.4 73 13.8
2007-03-26 08:09:35 51°20.058 2°55.513 78.2 13.5 71 13.8
2007-03-26 08:09:39 51°20.063 2°55.535 77.7 13.6 73 13.7
2007-03-26 08:09:46 51°20.07 2°55.575 78.1 13.6 73 13.9
2007-03-26 08:09:51 51°20.076 2°55.603 77.7 13.4 71 13.8
2007-03-26 08:09:55 51°20.08 2°55.626 77.8 13.5 73 13.7
2007-03-26 08:09:59 51°20.085 2°55.649 77.9 13.6 72 13.6
2007-03-26 08:10:06 51°20.093 2°55.689 78.2 13.5 72 13.6
2007-03-26 08:10:11 51°20.099 2°55.717 78.1 13.5 73 13.6
2007-03-26 08:10:16 51°20.105 2°55.746 78.4 13.5 72 13.7
2007-03-26 08:10:21 51°20.11 2°55.774 78.4 13.5 74 13.7
2007-03-26 08:10:26 51°20.116 2°55.803 78.8 13.7 71 13.6
2007-03-26 08:10:31 51°20.122 2°55.832 77.8 13.6 73 13.5
2007-03-26 08:10:36 51°20.128 2°55.86 78.3 13.5 71 13.5
2007-03-26 08:10:41 51°20.133 2°55.889 78 13.6 75 13.5
2007-03-26 08:10:46 51°20.139 2°55.917 78.6 13.6 71 13.5
2007-03-26 08:10:50 51°20.143 2°55.941 78 13.5 75 13.5
2007-03-26 08:10:56 51°20.15 2°55.974 78.5 13.5 71 13.6
2007-03-26 08:11:01 51°20.155 2°56.003 77.8 13.6 74 13.6
2007-03-26 08:11:06 51°20.161 2°56.031 78.3 13.6 71 13.6
2007-03-26 08:11:11 51°20.166 2°56.06 77.7 13.5 73 13.5
2007-03-26 08:11:15 51°20.171 2°56.083 78.6 13.5 72 13.4
2007-03-26 08:11:21 51°20.178 2°56.117 78.4 13.5 72 13.4
2007-03-26 08:11:26 51°20.183 2°56.145 78 13.4 72 13.4
2007-03-26 08:11:31 51°20.189 2°56.174 78.6 13.6 72 13.4
2007-03-26 08:11:35 51°20.193 2°56.198 78.4 13.5 71 13.4
2007-03-26 08:11:41 51°20.2 2°56.232 77.9 13.5 74 13.2
2007-03-26 08:11:46 51°20.206 2°56.26 78.9 13.5 71 13.3
2007-03-26 08:11:51 51°20.211 2°56.289 78.2 13.5 74 13.3
2007-03-26 08:11:55 51°20.216 2°56.312 78.8 13.5 72 13.3
2007-03-26 08:12:01 51°20.223 2°56.346 78.5 13.5 74 13.2
2007-03-26 08:12:06 51°20.228 2°56.375 78.9 13.5 73 13.3
2007-03-26 08:12:11 51°20.234 2°56.403 79.5 13.6 71 13.4
2007-03-26 08:12:15 51°20.238 2°56.426 78.3 13.5 73 13.3
2007-03-26 08:12:20 51°20.243 2°56.455 79 13.5 73 13.3
2007-03-26 08:12:26 51°20.25 2°56.489 78.7 13.5 73 13.1
2007-03-26 08:12:31 51°20.256 2°56.518 78.9 13.6 73 13.2
2007-03-26 08:12:36 51°20.262 2°56.547 78.8 13.6 72 13.2
2007-03-26 08:12:41 51°20.267 2°56.575 78.2 13.5 73 13.2
2007-03-26 08:12:46 51°20.273 2°56.604 78 13.6 72 13.1
2007-03-26 08:12:51 51°20.278 2°56.632 78.5 13.6 73 13.1
2007-03-26 08:12:56 51°20.284 2°56.661 79.1 13.6 72 13.1
2007-03-26 08:13:01 51°20.29 2°56.69 78.8 13.6 72 13.1
2007-03-26 08:13:06 51°20.296 2°56.718 78.1 13.5 72 13.1
2007-03-26 08:13:10 51°20.3 2°56.741 78.4 13.7 72 13.2
2007-03-26 08:13:16 51°20.308 2°56.776 78.1 13.7 72 13.2
2007-03-26 08:13:21 51°20.313 2°56.805 78.1 13.6 74 13.1
2007-03-26 08:13:25 51°20.318 2°56.827 78.6 13.5 71 13.2
2007-03-26 08:13:30 51°20.323 2°56.856 78.4 13.6 73 13.2
2007-03-26 08:13:35 51°20.329 2°56.885 78.6 13.7 71 13.2
2007-03-26 08:13:41 51°20.336 2°56.919 78.2 13.7 73 13.6
2007-03-26 08:13:46 51°20.342 2°56.948 78.3 13.6 72 13.2
2007-03-26 08:13:51 51°20.347 2°56.977 78.6 13.6 72 12.9
2007-03-26 08:13:55 51°20.352 2°57 78.5 13.6 72 13
2007-03-26 08:14:01 51°20.359 2°57.034 78.3 13.6 72 13